sensor_id;sensor_type;location;lat;lon;timestamp;pressure;altitude;pressure_sealevel;temperature;humidity
52249;BME280;38541;48.130;8.378;2023-03-25T00:01:07;92215.94;;;6.20;72.31
52249;BME280;38541;48.130;8.378;2023-03-25T00:03:40;92219.06;;;6.17;73.82
52249;BME280;38541;48.130;8.378;2023-03-25T00:06:09;92230.34;;;6.00;75.84
52249;BME280;38541;48.130;8.378;2023-03-25T00:08:36;92217.44;;;5.89;77.18
52249;BME280;38541;48.130;8.378;2023-03-25T00:11:03;92210.97;;;5.96;77.73
52249;BME280;38541;48.130;8.378;2023-03-25T00:13:30;92219.91;;;6.00;78.08
52249;BME280;38541;48.130;8.378;2023-03-25T00:15:57;92218.94;;;6.07;78.49
52249;BME280;38541;48.130;8.378;2023-03-25T00:18:26;92222.09;;;6.09;78.60
52249;BME280;38541;48.130;8.378;2023-03-25T00:20:54;92225.19;;;6.06;78.83
52249;BME280;38541;48.130;8.378;2023-03-25T00:23:22;92208.69;;;6.00;79.28
52249;BME280;38541;48.130;8.378;2023-03-25T00:25:49;92215.13;;;5.92;80.04
52249;BME280;38541;48.130;8.378;2023-03-25T00:28:18;92215.09;;;5.87;79.84
52249;BME280;38541;48.130;8.378;2023-03-25T00:30:44;92224.25;;;5.90;80.28
52249;BME280;38541;48.130;8.378;2023-03-25T00:33:11;92204.34;;;5.83;79.63
52249;BME280;38541;48.130;8.378;2023-03-25T00:35:39;92211.31;;;5.78;79.62
52249;BME280;38541;48.130;8.378;2023-03-25T00:38:10;92214.19;;;5.76;79.27
52249;BME280;38541;48.130;8.378;2023-03-25T00:40:37;92205.09;;;5.79;79.05
52249;BME280;38541;48.130;8.378;2023-03-25T00:43:04;92180.88;;;5.83;78.60
52249;BME280;38541;48.130;8.378;2023-03-25T00:45:32;92193.69;;;5.85;77.46
52249;BME280;38541;48.130;8.378;2023-03-25T00:47:59;92198.59;;;5.81;77.10
52249;BME280;38541;48.130;8.378;2023-03-25T00:50:25;92193.84;;;5.73;76.77
52249;BME280;38541;48.130;8.378;2023-03-25T00:52:52;92184.69;;;5.70;75.68
52249;BME280;38541;48.130;8.378;2023-03-25T00:55:21;92202.69;;;5.72;75.94
52249;BME280;38541;48.130;8.378;2023-03-25T00:57:48;92182.91;;;5.76;75.42
52249;BME280;38541;48.130;8.378;2023-03-25T01:00:16;92181.66;;;5.79;75.69
52249;BME280;38541;48.130;8.378;2023-03-25T01:02:43;92185.03;;;5.79;75.60
52249;BME280;38541;48.130;8.378;2023-03-25T01:05:11;92178.47;;;5.77;75.61
52249;BME280;38541;48.130;8.378;2023-03-25T01:07:38;92180.38;;;5.86;75.10
52249;BME280;38541;48.130;8.378;2023-03-25T01:10:07;92189.00;;;5.87;74.88
52249;BME280;38541;48.130;8.378;2023-03-25T01:12:34;92180.19;;;5.93;73.94
52249;BME280;38541;48.130;8.378;2023-03-25T01:15:00;92190.13;;;5.96;73.62
52249;BME280;38541;48.130;8.378;2023-03-25T01:17:27;92198.59;;;6.04;74.31
52249;BME280;38541;48.130;8.378;2023-03-25T01:19:54;92215.66;;;5.94;74.88
52249;BME280;38541;48.130;8.378;2023-03-25T01:22:20;92231.34;;;5.72;75.85
52249;BME280;38541;48.130;8.378;2023-03-25T01:24:47;92212.41;;;5.54;76.33
52249;BME280;38541;48.130;8.378;2023-03-25T01:27:13;92226.16;;;5.27;76.68
52249;BME280;38541;48.130;8.378;2023-03-25T01:29:40;92224.41;;;4.94;77.67
52249;BME280;38541;48.130;8.378;2023-03-25T01:32:07;92216.56;;;4.71;77.45
52249;BME280;38541;48.130;8.378;2023-03-25T01:34:34;92208.59;;;4.78;77.82
52249;BME280;38541;48.130;8.378;2023-03-25T01:37:03;92198.28;;;4.83;77.16
52249;BME280;38541;48.130;8.378;2023-03-25T01:39:30;92194.63;;;4.84;77.83
52249;BME280;38541;48.130;8.378;2023-03-25T01:41:56;92191.78;;;4.86;77.28
52249;BME280;38541;48.130;8.378;2023-03-25T01:46:51;92176.47;;;4.90;77.57
52249;BME280;38541;48.130;8.378;2023-03-25T01:49:28;92187.00;;;5.00;77.40
52249;BME280;38541;48.130;8.378;2023-03-25T01:52:02;92182.28;;;4.97;77.65
52249;BME280;38541;48.130;8.378;2023-03-25T01:54:30;92177.09;;;4.97;77.69
52249;BME280;38541;48.130;8.378;2023-03-25T01:56:56;92177.41;;;5.00;79.09
52249;BME280;38541;48.130;8.378;2023-03-25T01:59:25;92174.13;;;5.10;79.92
52249;BME280;38541;48.130;8.378;2023-03-25T02:01:54;92161.66;;;5.12;79.41
52249;BME280;38541;48.130;8.378;2023-03-25T02:04:36;92169.50;;;5.18;79.34
52249;BME280;38541;48.130;8.378;2023-03-25T02:07:05;92159.66;;;5.20;78.65
52249;BME280;38541;48.130;8.378;2023-03-25T02:09:33;92150.38;;;5.29;78.57
52249;BME280;38541;48.130;8.378;2023-03-25T02:12:05;92158.75;;;5.31;78.57
52249;BME280;38541;48.130;8.378;2023-03-25T02:14:34;92153.09;;;5.39;79.13
52249;BME280;38541;48.130;8.378;2023-03-25T02:17:11;92161.69;;;5.40;78.15
52249;BME280;38541;48.130;8.378;2023-03-25T02:22:28;92191.69;;;5.20;78.11
52249;BME280;38541;48.130;8.378;2023-03-25T02:28:11;92221.06;;;4.76;84.31
52249;BME280;38541;48.130;8.378;2023-03-25T02:30:49;92205.84;;;4.68;83.26
52249;BME280;38541;48.130;8.378;2023-03-25T02:33:33;92203.50;;;4.49;82.29
52249;BME280;38541;48.130;8.378;2023-03-25T02:38:43;92203.03;;;4.52;82.04
52249;BME280;38541;48.130;8.378;2023-03-25T02:41:36;92206.78;;;4.62;81.68
52249;BME280;38541;48.130;8.378;2023-03-25T02:44:13;92196.53;;;4.72;81.53
52249;BME280;38541;48.130;8.378;2023-03-25T02:46:45;92207.44;;;4.69;81.76
52249;BME280;38541;48.130;8.378;2023-03-25T02:49:22;92222.19;;;4.63;81.35
52249;BME280;38541;48.130;8.378;2023-03-25T02:51:56;92219.41;;;4.70;81.42
52249;BME280;38541;48.130;8.378;2023-03-25T02:54:26;92226.19;;;4.71;81.46
52249;BME280;38541;48.130;8.378;2023-03-25T02:56:55;92225.66;;;4.69;80.64
52249;BME280;38541;48.130;8.378;2023-03-25T02:59:24;92208.59;;;4.78;81.00
52249;BME280;38541;48.130;8.378;2023-03-25T03:01:58;92213.16;;;4.88;81.04
52249;BME280;38541;48.130;8.378;2023-03-25T03:04:25;92234.50;;;4.90;80.76
52249;BME280;38541;48.130;8.378;2023-03-25T03:06:52;92217.03;;;4.85;79.84
52249;BME280;38541;48.130;8.378;2023-03-25T03:09:27;92231.13;;;4.90;80.37
52249;BME280;38541;48.130;8.378;2023-03-25T03:18:17;92216.78;;;4.87;79.19
52249;BME280;38541;48.130;8.378;2023-03-25T03:23:51;92222.78;;;4.88;79.03
52249;BME280;38541;48.130;8.378;2023-03-25T03:26:28;92223.88;;;4.92;77.87
52249;BME280;38541;48.130;8.378;2023-03-25T03:29:24;92216.00;;;4.87;78.13
52249;BME280;38541;48.130;8.378;2023-03-25T03:32:01;92222.56;;;4.72;77.62
52249;BME280;38541;48.130;8.378;2023-03-25T03:34:41;92208.75;;;4.71;77.70
52249;BME280;38541;48.130;8.378;2023-03-25T03:37:16;92209.78;;;4.70;77.86
52249;BME280;38541;48.130;8.378;2023-03-25T03:39:45;92210.69;;;4.59;77.29
52249;BME280;38541;48.130;8.378;2023-03-25T03:42:27;92221.09;;;4.59;78.14
52249;BME280;38541;48.130;8.378;2023-03-25T03:45:11;92214.06;;;4.60;78.85
52249;BME280;38541;48.130;8.378;2023-03-25T03:47:45;92212.97;;;4.55;78.61
52249;BME280;38541;48.130;8.378;2023-03-25T03:50:19;92220.59;;;4.62;78.17
52249;BME280;38541;48.130;8.378;2023-03-25T03:52:51;92229.41;;;4.44;77.30
52249;BME280;38541;48.130;8.378;2023-03-25T03:55:31;92234.94;;;4.48;77.99
52249;BME280;38541;48.130;8.378;2023-03-25T03:58:09;92239.94;;;4.49;77.60
52249;BME280;38541;48.130;8.378;2023-03-25T04:01:07;92254.88;;;4.42;77.28
52249;BME280;38541;48.130;8.378;2023-03-25T04:03:40;92240.84;;;4.43;77.61
52249;BME280;38541;48.130;8.378;2023-03-25T04:06:18;92238.50;;;4.41;77.09
52249;BME280;38541;48.130;8.378;2023-03-25T04:08:55;92231.41;;;4.37;77.20
52249;BME280;38541;48.130;8.378;2023-03-25T04:11:36;92239.06;;;4.43;77.65
52249;BME280;38541;48.130;8.378;2023-03-25T04:14:06;92235.56;;;4.38;77.48
52249;BME280;38541;48.130;8.378;2023-03-25T04:16:34;92244.09;;;4.50;77.32
52249;BME280;38541;48.130;8.378;2023-03-25T04:19:05;92243.00;;;4.46;76.81
52249;BME280;38541;48.130;8.378;2023-03-25T04:21:32;92245.91;;;4.50;77.52
52249;BME280;38541;48.130;8.378;2023-03-25T04:23:59;92247.81;;;4.37;76.46
52249;BME280;38541;48.130;8.378;2023-03-25T04:26:27;92244.00;;;4.45;76.50
52249;BME280;38541;48.130;8.378;2023-03-25T04:29:00;92234.25;;;4.52;77.20
52249;BME280;38541;48.130;8.378;2023-03-25T04:31:28;92244.34;;;4.66;77.01
52249;BME280;38541;48.130;8.378;2023-03-25T04:33:59;92259.22;;;4.53;75.56
52249;BME280;38541;48.130;8.378;2023-03-25T04:36:27;92254.97;;;4.47;76.08
52249;BME280;38541;48.130;8.378;2023-03-25T04:38:54;92257.59;;;4.47;76.24
52249;BME280;38541;48.130;8.378;2023-03-25T04:41:21;92256.41;;;4.55;76.68
52249;BME280;38541;48.130;8.378;2023-03-25T04:43:48;92259.78;;;4.55;76.13
52249;BME280;38541;48.130;8.378;2023-03-25T04:46:16;92266.88;;;4.60;76.81
52249;BME280;38541;48.130;8.378;2023-03-25T04:48:43;92256.78;;;4.64;76.46
52249;BME280;38541;48.130;8.378;2023-03-25T04:51:11;92262.56;;;4.66;76.68
52249;BME280;38541;48.130;8.378;2023-03-25T04:53:39;92258.22;;;4.54;76.17
52249;BME280;38541;48.130;8.378;2023-03-25T04:56:07;92251.34;;;4.48;76.61
52249;BME280;38541;48.130;8.378;2023-03-25T04:58:42;92251.91;;;4.50;75.90
52249;BME280;38541;48.130;8.378;2023-03-25T05:01:21;92244.66;;;4.52;76.05
52249;BME280;38541;48.130;8.378;2023-03-25T05:03:49;92244.88;;;4.51;75.69
52249;BME280;38541;48.130;8.378;2023-03-25T05:06:16;92229.59;;;4.54;75.62
52249;BME280;38541;48.130;8.378;2023-03-25T05:08:43;92244.50;;;4.59;75.66
52249;BME280;38541;48.130;8.378;2023-03-25T05:11:09;92256.63;;;4.53;76.29
52249;BME280;38541;48.130;8.378;2023-03-25T05:13:36;92253.00;;;4.54;76.68
52249;BME280;38541;48.130;8.378;2023-03-25T05:16:03;92258.03;;;4.44;76.83
52249;BME280;38541;48.130;8.378;2023-03-25T05:18:29;92266.63;;;4.45;77.65
52249;BME280;38541;48.130;8.378;2023-03-25T05:20:56;92271.28;;;4.42;77.51
52249;BME280;38541;48.130;8.378;2023-03-25T05:23:22;92268.75;;;4.48;78.19
52249;BME280;38541;48.130;8.378;2023-03-25T05:25:50;92275.53;;;4.32;78.55
52249;BME280;38541;48.130;8.378;2023-03-25T05:28:17;92264.66;;;4.35;79.28
52249;BME280;38541;48.130;8.378;2023-03-25T05:30:45;92270.19;;;4.38;79.07
52249;BME280;38541;48.130;8.378;2023-03-25T05:33:14;92277.88;;;4.33;78.76
52249;BME280;38541;48.130;8.378;2023-03-25T05:35:42;92276.44;;;4.25;78.81
52249;BME280;38541;48.130;8.378;2023-03-25T05:38:10;92281.38;;;4.39;79.47
52249;BME280;38541;48.130;8.378;2023-03-25T05:40:45;92282.13;;;4.22;78.88
52249;BME280;38541;48.130;8.378;2023-03-25T05:43:15;92279.72;;;4.04;79.20
52249;BME280;38541;48.130;8.378;2023-03-25T05:45:42;92264.78;;;4.11;79.70
52249;BME280;38541;48.130;8.378;2023-03-25T05:48:10;92270.53;;;4.13;79.85
52249;BME280;38541;48.130;8.378;2023-03-25T05:50:36;92268.03;;;4.18;79.52
52249;BME280;38541;48.130;8.378;2023-03-25T05:53:03;92268.66;;;4.25;79.29
52249;BME280;38541;48.130;8.378;2023-03-25T05:55:29;92268.63;;;4.37;79.70
52249;BME280;38541;48.130;8.378;2023-03-25T05:57:56;92283.75;;;4.40;79.47
52249;BME280;38541;48.130;8.378;2023-03-25T06:00:24;92283.00;;;4.28;79.45
52249;BME280;38541;48.130;8.378;2023-03-25T06:02:50;92277.03;;;4.27;80.35
52249;BME280;38541;48.130;8.378;2023-03-25T06:05:17;92274.25;;;4.17;79.86
52249;BME280;38541;48.130;8.378;2023-03-25T06:07:49;92275.13;;;4.23;80.54
52249;BME280;38541;48.130;8.378;2023-03-25T06:10:16;92273.31;;;4.23;80.99
52249;BME280;38541;48.130;8.378;2023-03-25T06:12:44;92283.75;;;4.40;81.14
52249;BME280;38541;48.130;8.378;2023-03-25T06:15:14;92281.91;;;4.41;80.47
52249;BME280;38541;48.130;8.378;2023-03-25T06:17:43;92284.66;;;4.34;80.46
52249;BME280;38541;48.130;8.378;2023-03-25T06:20:13;92280.59;;;4.38;80.50
52249;BME280;38541;48.130;8.378;2023-03-25T06:22:43;92279.31;;;4.41;80.59
52249;BME280;38541;48.130;8.378;2023-03-25T06:25:13;92277.50;;;4.41;80.28
52249;BME280;38541;48.130;8.378;2023-03-25T06:27:42;92279.56;;;4.39;80.58
52249;BME280;38541;48.130;8.378;2023-03-25T06:30:11;92276.81;;;4.46;79.82
52249;BME280;38541;48.130;8.378;2023-03-25T06:32:38;92282.56;;;4.48;80.43
52249;BME280;38541;48.130;8.378;2023-03-25T06:35:07;92286.41;;;4.28;80.29
52249;BME280;38541;48.130;8.378;2023-03-25T06:37:34;92280.19;;;4.30;80.29
52249;BME280;38541;48.130;8.378;2023-03-25T06:40:06;92285.38;;;4.30;80.32
52249;BME280;38541;48.130;8.378;2023-03-25T06:42:34;92277.81;;;4.28;80.63
52249;BME280;38541;48.130;8.378;2023-03-25T06:45:19;92281.38;;;4.39;80.22
52249;BME280;38541;48.130;8.378;2023-03-25T06:48:07;92274.13;;;4.41;80.70
52249;BME280;38541;48.130;8.378;2023-03-25T06:50:33;92261.66;;;4.43;80.51
52249;BME280;38541;48.130;8.378;2023-03-25T06:53:00;92261.53;;;4.67;80.44
52249;BME280;38541;48.130;8.378;2023-03-25T06:55:28;92270.97;;;4.73;78.99
52249;BME280;38541;48.130;8.378;2023-03-25T06:57:55;92257.66;;;4.87;79.24
52249;BME280;38541;48.130;8.378;2023-03-25T07:00:22;92268.13;;;4.92;79.63
52249;BME280;38541;48.130;8.378;2023-03-25T07:02:49;92271.75;;;4.91;78.76
52249;BME280;38541;48.130;8.378;2023-03-25T07:05:16;92265.75;;;4.90;79.29
52249;BME280;38541;48.130;8.378;2023-03-25T07:07:43;92266.56;;;4.91;78.87
52249;BME280;38541;48.130;8.378;2023-03-25T07:10:11;92262.88;;;5.09;78.84
52249;BME280;38541;48.130;8.378;2023-03-25T07:12:38;92261.03;;;5.04;78.44
52249;BME280;38541;48.130;8.378;2023-03-25T07:15:05;92263.03;;;5.02;78.32
52249;BME280;38541;48.130;8.378;2023-03-25T07:17:33;92259.91;;;5.00;78.25
52249;BME280;38541;48.130;8.378;2023-03-25T07:20:00;92272.38;;;4.98;77.97
52249;BME280;38541;48.130;8.378;2023-03-25T07:22:26;92266.03;;;5.11;78.16
52249;BME280;38541;48.130;8.378;2023-03-25T07:24:53;92265.81;;;5.12;78.80
52249;BME280;38541;48.130;8.378;2023-03-25T07:27:19;92263.19;;;5.12;78.60
52249;BME280;38541;48.130;8.378;2023-03-25T07:29:56;92259.50;;;5.08;78.39
52249;BME280;38541;48.130;8.378;2023-03-25T07:32:22;92256.97;;;5.13;78.63
52249;BME280;38541;48.130;8.378;2023-03-25T07:34:49;92263.91;;;5.25;78.63
52249;BME280;38541;48.130;8.378;2023-03-25T07:37:16;92257.16;;;5.29;78.46
52249;BME280;38541;48.130;8.378;2023-03-25T07:39:42;92266.97;;;5.22;77.40
52249;BME280;38541;48.130;8.378;2023-03-25T07:42:09;92259.88;;;5.17;77.14
52249;BME280;38541;48.130;8.378;2023-03-25T07:44:55;92267.38;;;5.13;78.74
52249;BME280;38541;48.130;8.378;2023-03-25T07:47:22;92273.13;;;5.16;77.93
52249;BME280;38541;48.130;8.378;2023-03-25T07:49:48;92278.06;;;5.12;77.49
52249;BME280;38541;48.130;8.378;2023-03-25T07:52:15;92278.81;;;5.12;77.48
52249;BME280;38541;48.130;8.378;2023-03-25T07:54:41;92278.00;;;5.29;77.88
52249;BME280;38541;48.130;8.378;2023-03-25T07:57:08;92280.88;;;5.10;77.38
52249;BME280;38541;48.130;8.378;2023-03-25T07:59:34;92275.78;;;5.21;77.84
52249;BME280;38541;48.130;8.378;2023-03-25T08:02:01;92274.72;;;5.17;78.17
52249;BME280;38541;48.130;8.378;2023-03-25T08:04:28;92269.97;;;5.13;78.37
52249;BME280;38541;48.130;8.378;2023-03-25T08:06:54;92280.81;;;5.05;79.08
52249;BME280;38541;48.130;8.378;2023-03-25T08:09:21;92282.78;;;5.15;79.29
52249;BME280;38541;48.130;8.378;2023-03-25T08:11:48;92286.41;;;5.14;79.71
52249;BME280;38541;48.130;8.378;2023-03-25T08:14:14;92300.53;;;5.01;79.52
52249;BME280;38541;48.130;8.378;2023-03-25T08:16:41;92297.69;;;5.03;79.53
52249;BME280;38541;48.130;8.378;2023-03-25T08:19:07;92294.94;;;5.09;79.21
52249;BME280;38541;48.130;8.378;2023-03-25T08:21:34;92295.16;;;5.25;78.63
52249;BME280;38541;48.130;8.378;2023-03-25T08:24:00;92295.69;;;5.49;77.20
52249;BME280;38541;48.130;8.378;2023-03-25T08:26:31;92296.44;;;5.89;76.39
52249;BME280;38541;48.130;8.378;2023-03-25T08:29:00;92302.63;;;5.83;75.56
52249;BME280;38541;48.130;8.378;2023-03-25T08:31:29;92293.66;;;5.74;75.88
52249;BME280;38541;48.130;8.378;2023-03-25T08:33:57;92297.66;;;5.81;74.81
52249;BME280;38541;48.130;8.378;2023-03-25T08:36:24;92284.38;;;5.83;76.20
52249;BME280;38541;48.130;8.378;2023-03-25T08:38:51;92289.78;;;5.98;77.74
52249;BME280;38541;48.130;8.378;2023-03-25T08:41:17;92294.72;;;6.22;75.64
52249;BME280;38541;48.130;8.378;2023-03-25T08:43:44;92282.88;;;6.37;74.96
52249;BME280;38541;48.130;8.378;2023-03-25T08:46:11;92282.63;;;6.38;73.73
52249;BME280;38541;48.130;8.378;2023-03-25T08:48:38;92273.75;;;6.39;74.34
52249;BME280;38541;48.130;8.378;2023-03-25T08:51:05;92275.47;;;6.28;75.98
52249;BME280;38541;48.130;8.378;2023-03-25T08:53:34;92289.34;;;6.07;76.06
52249;BME280;38541;48.130;8.378;2023-03-25T08:56:01;92289.78;;;5.98;75.96
52249;BME280;38541;48.130;8.378;2023-03-25T08:58:27;92305.25;;;5.83;75.82
52249;BME280;38541;48.130;8.378;2023-03-25T09:00:54;92290.50;;;5.71;77.67
52249;BME280;38541;48.130;8.378;2023-03-25T09:03:23;92305.53;;;5.86;76.83
52249;BME280;38541;48.130;8.378;2023-03-25T09:05:50;92311.41;;;5.99;76.33
52249;BME280;38541;48.130;8.378;2023-03-25T09:08:17;92299.13;;;5.72;74.85
52249;BME280;38541;48.130;8.378;2023-03-25T09:10:43;92323.97;;;5.57;75.42
52249;BME280;38541;48.130;8.378;2023-03-25T09:13:10;92289.47;;;5.72;75.95
52249;BME280;38541;48.130;8.378;2023-03-25T09:15:36;92276.97;;;5.97;74.93
52249;BME280;38541;48.130;8.378;2023-03-25T09:18:03;92280.53;;;6.13;74.81
52249;BME280;38541;48.130;8.378;2023-03-25T09:20:32;92284.31;;;6.22;73.08
52249;BME280;38541;48.130;8.378;2023-03-25T09:22:58;92274.16;;;6.26;73.65
52249;BME280;38541;48.130;8.378;2023-03-25T09:25:25;92286.03;;;6.39;74.91
52249;BME280;38541;48.130;8.378;2023-03-25T09:27:52;92290.28;;;6.50;74.68
52249;BME280;38541;48.130;8.378;2023-03-25T09:30:18;92282.75;;;6.26;73.89
52249;BME280;38541;48.130;8.378;2023-03-25T09:32:45;92276.56;;;6.33;73.63
52249;BME280;38541;48.130;8.378;2023-03-25T09:35:11;92291.25;;;6.39;73.85
52249;BME280;38541;48.130;8.378;2023-03-25T09:37:38;92284.88;;;6.30;73.41
52249;BME280;38541;48.130;8.378;2023-03-25T09:40:05;92301.94;;;6.15;73.79
52249;BME280;38541;48.130;8.378;2023-03-25T09:42:44;92272.97;;;6.11;72.63
52249;BME280;38541;48.130;8.378;2023-03-25T09:47:55;92292.22;;;6.33;72.14
52249;BME280;38541;48.130;8.378;2023-03-25T09:50:24;92282.38;;;6.12;72.03
52249;BME280;38541;48.130;8.378;2023-03-25T09:55:32;92288.91;;;6.15;73.78
52249;BME280;38541;48.130;8.378;2023-03-25T09:58:04;92315.44;;;6.07;71.94
52249;BME280;38541;48.130;8.378;2023-03-25T10:00:42;92285.06;;;6.23;72.33
52249;BME280;38541;48.130;8.378;2023-03-25T10:03:20;92291.50;;;6.42;72.68
52249;BME280;38541;48.130;8.378;2023-03-25T10:11:57;92296.41;;;6.99;69.32
52249;BME280;38541;48.130;8.378;2023-03-25T10:23:10;92330.59;;;7.78;65.78
52249;BME280;38541;48.130;8.378;2023-03-25T10:25:45;92330.22;;;7.54;66.58
52249;BME280;38541;48.130;8.378;2023-03-25T10:28:19;92329.56;;;7.31;65.49
52249;BME280;38541;48.130;8.378;2023-03-25T10:30:50;92321.84;;;7.52;66.43
52249;BME280;38541;48.130;8.378;2023-03-25T10:33:38;92318.44;;;6.76;67.12
52249;BME280;38541;48.130;8.378;2023-03-25T10:36:12;92323.25;;;7.27;67.70
52249;BME280;38541;48.130;8.378;2023-03-25T10:38:41;92338.06;;;7.59;67.70
52249;BME280;38541;48.130;8.378;2023-03-25T10:41:18;92323.81;;;7.82;67.13
52249;BME280;38541;48.130;8.378;2023-03-25T10:43:46;92312.53;;;7.71;67.79
52249;BME280;38541;48.130;8.378;2023-03-25T10:46:34;92317.09;;;8.02;67.16
52249;BME280;38541;48.130;8.378;2023-03-25T10:49:04;92316.63;;;8.31;67.75
52249;BME280;38541;48.130;8.378;2023-03-25T10:51:33;92321.13;;;8.46;65.21
52249;BME280;38541;48.130;8.378;2023-03-25T10:54:01;92317.38;;;8.16;63.98
52249;BME280;38541;48.130;8.378;2023-03-25T10:56:42;92300.34;;;8.08;64.30
52249;BME280;38541;48.130;8.378;2023-03-25T10:59:19;92333.03;;;7.95;63.00
52249;BME280;38541;48.130;8.378;2023-03-25T11:01:49;92306.78;;;7.80;63.49
52249;BME280;38541;48.130;8.378;2023-03-25T11:04:20;92314.56;;;7.64;62.68
52249;BME280;38541;48.130;8.378;2023-03-25T11:06:54;92300.59;;;7.96;63.78
52249;BME280;38541;48.130;8.378;2023-03-25T11:09:28;92303.31;;;8.43;63.71
52249;BME280;38541;48.130;8.378;2023-03-25T11:11:59;92304.34;;;8.42;61.20
52249;BME280;38541;48.130;8.378;2023-03-25T11:14:28;92313.81;;;8.48;62.56
52249;BME280;38541;48.130;8.378;2023-03-25T11:16:59;92304.41;;;8.52;63.94
52249;BME280;38541;48.130;8.378;2023-03-25T11:20:13;92312.16;;;8.21;60.55
52249;BME280;38541;48.130;8.378;2023-03-25T11:22:46;92313.59;;;8.55;61.25
52249;BME280;38541;48.130;8.378;2023-03-25T11:25:19;92336.53;;;8.32;60.54
52249;BME280;38541;48.130;8.378;2023-03-25T11:27:54;92313.25;;;8.41;61.98
52249;BME280;38541;48.130;8.378;2023-03-25T11:30:23;92309.41;;;8.64;61.50
52249;BME280;38541;48.130;8.378;2023-03-25T11:33:01;92323.84;;;8.82;58.36
52249;BME280;38541;48.130;8.378;2023-03-25T11:35:30;92339.94;;;8.27;60.55
52249;BME280;38541;48.130;8.378;2023-03-25T11:37:59;92329.06;;;8.67;61.20
52249;BME280;38541;48.130;8.378;2023-03-25T11:40:27;92319.63;;;8.92;60.71
52249;BME280;38541;48.130;8.378;2023-03-25T11:42:57;92313.84;;;9.41;63.19
52249;BME280;38541;48.130;8.378;2023-03-25T11:45:33;92349.75;;;9.56;59.52
52249;BME280;38541;48.130;8.378;2023-03-25T11:48:09;92323.28;;;9.17;60.21
52249;BME280;38541;48.130;8.378;2023-03-25T11:50:36;92313.59;;;9.38;60.41
52249;BME280;38541;48.130;8.378;2023-03-25T11:53:04;92324.91;;;9.02;58.53
52249;BME280;38541;48.130;8.378;2023-03-25T11:55:40;92312.81;;;9.27;59.25
52249;BME280;38541;48.130;8.378;2023-03-25T11:58:14;92331.69;;;9.39;57.62
52249;BME280;38541;48.130;8.378;2023-03-25T12:00:50;92331.19;;;9.06;58.60
52249;BME280;38541;48.130;8.378;2023-03-25T12:03:30;92315.94;;;9.19;58.31
52249;BME280;38541;48.130;8.378;2023-03-25T12:06:15;92326.69;;;9.43;57.84
52249;BME280;38541;48.130;8.378;2023-03-25T12:08:52;92310.66;;;9.60;59.11
52249;BME280;38541;48.130;8.378;2023-03-25T12:11:29;92325.66;;;9.28;59.18
52249;BME280;38541;48.130;8.378;2023-03-25T12:17:35;92304.44;;;10.11;60.41
52249;BME280;38541;48.130;8.378;2023-03-25T12:26:12;92343.03;;;10.16;56.95
52249;BME280;38541;48.130;8.378;2023-03-25T12:31:39;92313.81;;;9.52;59.93
52249;BME280;38541;48.130;8.378;2023-03-25T12:45:33;92337.84;;;9.90;57.93
52249;BME280;38541;48.130;8.378;2023-03-25T12:50:53;92326.81;;;9.98;55.12
52249;BME280;38541;48.130;8.378;2023-03-25T12:53:37;92346.72;;;10.05;54.88
52249;BME280;38541;48.130;8.378;2023-03-25T12:57:05;92335.13;;;10.21;56.41
52249;BME280;38541;48.130;8.378;2023-03-25T13:07:12;92347.66;;;10.35;55.07
52249;BME280;38541;48.130;8.378;2023-03-25T13:09:54;92343.88;;;10.62;54.92
52249;BME280;38541;48.130;8.378;2023-03-25T13:12:29;92340.59;;;10.80;52.89
52249;BME280;38541;48.130;8.378;2023-03-25T13:15:10;92325.69;;;10.70;54.37
52249;BME280;38541;48.130;8.378;2023-03-25T13:17:47;92331.34;;;11.23;53.03
52249;BME280;38541;48.130;8.378;2023-03-25T13:20:15;92311.63;;;10.91;52.97
52249;BME280;38541;48.130;8.378;2023-03-25T13:22:51;92318.53;;;10.81;53.02
52249;BME280;38541;48.130;8.378;2023-03-25T13:27:46;92318.59;;;10.71;53.65
52249;BME280;38541;48.130;8.378;2023-03-25T13:30:25;92329.28;;;10.35;54.39
52249;BME280;38541;48.130;8.378;2023-03-25T13:33:03;92307.25;;;10.81;55.59
52249;BME280;38541;48.130;8.378;2023-03-25T13:35:41;92298.28;;;11.46;53.95
52249;BME280;38541;48.130;8.378;2023-03-25T13:38:16;92288.09;;;12.12;51.56
52249;BME280;38541;48.130;8.378;2023-03-25T13:40:57;92292.53;;;12.17;49.91
52249;BME280;38541;48.130;8.378;2023-03-25T13:44:18;92332.34;;;10.97;52.04
52249;BME280;38541;48.130;8.378;2023-03-25T13:46:23;92311.00;;;10.09;53.87
52249;BME280;38541;48.130;8.378;2023-03-25T13:51:36;92350.50;;;9.67;58.86
52249;BME280;38541;48.130;8.378;2023-03-25T13:59:35;92341.06;;;12.93;53.37
52249;BME280;38541;48.130;8.378;2023-03-25T14:02:20;92325.53;;;15.75;45.73
52249;BME280;38541;48.130;8.378;2023-03-25T14:10:37;92338.44;;;17.80;41.18
52249;BME280;38541;48.130;8.378;2023-03-25T14:13:45;92333.56;;;18.69;40.13
52249;BME280;38541;48.130;8.378;2023-03-25T14:16:10;92337.84;;;20.01;38.10
52249;BME280;38541;48.130;8.378;2023-03-25T14:18:50;92344.72;;;19.68;36.52
52249;BME280;38541;48.130;8.378;2023-03-25T14:23:48;92331.34;;;19.01;36.24
52249;BME280;38541;48.130;8.378;2023-03-25T14:26:24;92323.25;;;19.99;35.13
52249;BME280;38541;48.130;8.378;2023-03-25T14:28:53;92336.94;;;19.63;34.32
52249;BME280;38541;48.130;8.378;2023-03-25T14:31:31;92330.38;;;16.89;38.08
52249;BME280;38541;48.130;8.378;2023-03-25T14:39:36;92340.44;;;11.95;49.95
52249;BME280;38541;48.130;8.378;2023-03-25T14:42:02;92349.25;;;11.21;52.46
52249;BME280;38541;48.130;8.378;2023-03-25T14:44:31;92339.16;;;10.59;54.62
52249;BME280;38541;48.130;8.378;2023-03-25T14:47:24;92325.31;;;14.43;46.38
52249;BME280;38541;48.130;8.378;2023-03-25T14:49:55;92331.34;;;17.28;39.13
52249;BME280;38541;48.130;8.378;2023-03-25T14:52:39;92335.44;;;15.69;40.51
52249;BME280;38541;48.130;8.378;2023-03-25T14:55:14;92367.69;;;16.25;40.64
52249;BME280;38541;48.130;8.378;2023-03-25T14:57:43;92318.13;;;16.35;40.44
52249;BME280;38541;48.130;8.378;2023-03-25T15:00:20;92338.16;;;15.78;40.27
52249;BME280;38541;48.130;8.378;2023-03-25T15:03:03;92321.56;;;16.26;39.05
52249;BME280;38541;48.130;8.378;2023-03-25T15:05:34;92341.09;;;15.45;39.11
52249;BME280;38541;48.130;8.378;2023-03-25T15:10:38;92345.53;;;14.90;40.36
52249;BME280;38541;48.130;8.378;2023-03-25T15:13:08;92335.72;;;17.24;37.16